Time;durP1;ratioP1;P1;durP2;ratioP2;P2;SDS_P1;SDS_P2;PMS_P1;PMS_P2;Temp;Humidity;BMP_temperature;BMP_pressure;BME280_temperature;BME280_humidity;BME280_pressure;Samples;Min_cycle;Max_cycle;Signal;HPM_P1;HPM_P2
2022/01/18 00:00:40;;;;;;;12.55;1.92;;;7.00;99.90;;;;;;4960736;29;20036;-77
2022/01/18 00:03:06;;;;;;;7.03;1.48;;;7.00;99.90;;;;;;4962416;29;20443;-77
2022/01/18 00:05:32;;;;;;;7.57;1.73;;;7.00;99.90;;;;;;4964014;29;20058;-77
2022/01/18 00:07:58;;;;;;;5.75;1.25;;;7.00;99.90;;;;;;4964656;29;20031;-78
2022/01/18 00:10:28;;;;;;;2.53;1.13;;;7.00;99.90;;;;;;4962991;29;20034;-77
2022/01/18 00:15:40;;;;;;;7.68;0.75;;;7.00;99.90;;;;;;4962835;28;20030;-78
2022/01/18 00:18:10;;;;;;;15.02;1.92;;;7.00;99.90;;;;;;4962348;28;20034;-77
2022/01/18 00:23:05;;;;;;;5.30;1.00;;;7.00;99.90;;;;;;4961539;29;20035;-78
2022/01/18 00:25:34;;;;;;;4.13;0.77;;;7.00;99.90;;;;;;4960212;29;20476;-77
2022/01/18 00:28:00;;;;;;;1.13;0.80;;;7.10;99.90;;;;;;4961919;28;20027;-78
2022/01/18 00:33:15;;;;;;;3.78;0.93;;;7.00;99.90;;;;;;4959540;29;20078;-77
2022/01/18 00:35:40;;;;;;;6.40;1.08;;;7.00;99.90;;;;;;4960429;28;20515;-76
2022/01/18 00:38:15;;;;;;;11.60;2.10;;;7.10;99.90;;;;;;4961024;28;20024;-78
2022/01/18 00:40:41;;;;;;;8.40;1.13;;;7.10;99.90;;;;;;4961210;29;20106;-77
2022/01/18 00:43:14;;;;;;;17.98;2.15;;;7.10;99.90;;;;;;4960037;29;20472;-76
2022/01/18 00:45:39;;;;;;;3.65;0.98;;;7.10;99.90;;;;;;4960166;29;20035;-78
2022/01/18 00:48:05;;;;;;;12.85;1.38;;;7.10;99.90;;;;;;4961579;29;20030;-78
2022/01/18 00:50:32;;;;;;;18.45;2.30;;;7.20;99.90;;;;;;4974417;28;20031;-78
2022/01/18 00:52:58;;;;;;;1.95;1.08;;;7.10;99.90;;;;;;4960646;29;20047;-78
2022/01/18 00:55:27;;;;;;;3.08;1.13;;;7.10;99.90;;;;;;4961444;28;20487;-77
2022/01/18 00:57:52;;;;;;;10.05;1.58;;;7.10;99.90;;;;;;4963889;28;20035;-79
2022/01/18 01:00:18;;;;;;;10.68;1.90;;;7.10;99.90;;;;;;4977622;28;20427;-78
2022/01/18 01:02:44;;;;;;;3.35;1.98;;;7.10;99.90;;;;;;4964565;29;20039;-79
2022/01/18 01:05:10;;;;;;;13.75;2.60;;;7.10;99.90;;;;;;4973529;28;20035;-78
2022/01/18 01:07:37;;;;;;;3.08;1.08;;;7.00;99.90;;;;;;4963223;29;20035;-79
2022/01/18 01:10:04;;;;;;;6.05;1.48;;;7.00;99.90;;;;;;4962763;29;20031;-80
2022/01/18 01:12:29;;;;;;;4.68;0.82;;;7.00;99.90;;;;;;4966991;28;20105;-78
2022/01/18 01:15:03;;;;;;;9.02;1.52;;;7.00;99.90;;;;;;4966932;29;20031;-79
2022/01/18 01:34:22;;;;;;;6.65;0.75;;;7.00;99.90;;;;;;4964301;29;20066;-76
2022/01/18 01:37:12;;;;;;;11.60;1.27;;;7.00;99.90;;;;;;4963945;29;20515;-79
2022/01/18 01:41:48;;;;;;;3.45;0.73;;;6.90;99.90;;;;;;4963138;29;20038;-77
2022/01/18 01:44:58;;;;;;;12.23;1.48;;;6.90;99.90;;;;;;4965499;29;20037;-78
2022/01/18 01:47:34;;;;;;;3.80;1.08;;;6.90;99.90;;;;;;4964029;28;20051;-80
2022/01/18 01:50:00;;;;;;;5.95;0.80;;;6.80;99.90;;;;;;4974325;28;20495;-79
2022/01/18 01:52:26;;;;;;;2.10;0.52;;;6.80;99.90;;;;;;4964791;28;20039;-76
2022/01/18 01:54:54;;;;;;;4.68;0.93;;;6.80;99.90;;;;;;4963735;28;20034;-77
2022/01/18 01:57:20;;;;;;;5.65;0.73;;;6.80;99.90;;;;;;4963991;29;20115;-76
2022/01/18 01:59:46;;;;;;;5.25;0.60;;;6.80;99.90;;;;;;4967735;28;20051;-78
2022/01/18 02:02:12;;;;;;;1.90;0.50;;;6.80;99.90;;;;;;4965272;29;20043;-76
2022/01/18 02:04:37;;;;;;;2.35;0.47;;;6.80;99.90;;;;;;4965372;29;20031;-77
2022/01/18 02:07:03;;;;;;;5.47;0.40;;;6.90;99.90;;;;;;4963163;28;20046;-77
2022/01/18 02:09:29;;;;;;;2.40;0.73;;;6.90;99.90;;;;;;4962673;29;20042;-76
2022/01/18 02:11:56;;;;;;;5.57;1.35;;;6.90;99.90;;;;;;4963111;28;20051;-76
2022/01/18 02:14:24;;;;;;;2.13;0.70;;;6.90;99.90;;;;;;4964146;28;20051;-77
2022/01/18 02:22:19;;;;;;;6.10;0.65;;;7.00;99.90;;;;;;4964413;29;20038;-79
2022/01/18 02:24:45;;;;;;;5.43;1.08;;;7.00;99.90;;;;;;4964548;28;20086;-78
2022/01/18 02:27:10;;;;;;;6.40;0.85;;;6.90;99.90;;;;;;4963122;28;20042;-80
2022/01/18 02:29:36;;;;;;;1.17;0.57;;;6.90;99.90;;;;;;4962006;29;20062;-80
2022/01/18 02:32:03;;;;;;;5.68;1.33;;;6.90;99.90;;;;;;4964967;28;20044;-81
2022/01/18 02:34:29;;;;;;;1.73;0.70;;;6.90;99.90;;;;;;4962803;28;20385;-78
2022/01/18 02:36:57;;;;;;;13.70;1.90;;;6.90;99.90;;;;;;4962748;29;20028;-79
2022/01/18 02:39:26;;;;;;;3.95;0.73;;;6.90;99.90;;;;;;4963763;29;20424;-79
2022/01/18 02:42:03;;;;;;;6.63;1.38;;;6.90;99.90;;;;;;4963019;29;20030;-80
2022/01/18 02:44:30;;;;;;;3.97;1.35;;;6.90;99.90;;;;;;4965296;29;20502;-79
2022/01/18 02:46:57;;;;;;;2.67;1.00;;;6.90;99.90;;;;;;4964346;28;20065;-79
2022/01/18 02:49:23;;;;;;;2.83;0.52;;;6.90;99.90;;;;;;4964332;28;20071;-77
2022/01/18 02:51:48;;;;;;;4.55;1.63;;;6.90;99.90;;;;;;4964878;29;20038;-77
2022/01/18 02:54:17;;;;;;;7.13;1.70;;;6.90;99.90;;;;;;4963248;29;20051;-79
2022/01/18 02:56:49;;;;;;;11.73;2.58;;;6.90;99.90;;;;;;4962495;28;20015;-80
2022/01/18 02:59:24;;;;;;;12.30;1.85;;;6.90;99.90;;;;;;4978644;28;20043;-79
2022/01/18 03:04:40;;;;;;;2.38;1.73;;;6.90;99.90;;;;;;4962983;29;20087;-78
2022/01/18 03:07:07;;;;;;;9.27;2.70;;;6.90;99.90;;;;;;4961859;29;20038;-79
2022/01/18 03:09:32;;;;;;;11.93;2.03;;;6.90;99.90;;;;;;4965122;29;20087;-80
2022/01/18 03:11:58;;;;;;;10.10;2.08;;;6.90;99.90;;;;;;4962918;29;20070;-78
2022/01/18 03:14:25;;;;;;;7.88;2.17;;;6.90;99.90;;;;;;4965834;28;20031;-80
2022/01/18 03:16:50;;;;;;;11.68;3.17;;;6.90;99.90;;;;;;4963898;28;20035;-80
2022/01/18 03:19:16;;;;;;;9.32;2.33;;;7.00;99.90;;;;;;4963887;29;20098;-78
2022/01/18 03:21:42;;;;;;;27.55;3.50;;;6.90;99.90;;;;;;4967102;28;20055;-78
2022/01/18 03:24:59;;;;;;;14.45;3.45;;;7.00;99.90;;;;;;4965466;28;20038;-79
2022/01/18 03:29:41;;;;;;;19.38;3.20;;;7.00;99.90;;;;;;4967212;29;20095;-78
2022/01/18 03:32:10;;;;;;;19.58;2.88;;;7.00;99.90;;;;;;4965508;29;20058;-80
2022/01/18 03:34:35;;;;;;;22.73;4.03;;;7.00;99.90;;;;;;4967001;28;20127;-77
2022/01/18 03:37:01;;;;;;;5.20;1.92;;;7.00;99.90;;;;;;4966814;29;20027;-78
2022/01/18 03:39:27;;;;;;;7.45;2.70;;;7.00;99.90;;;;;;4967262;29;20082;-78
2022/01/18 03:42:29;;;;;;;21.55;2.88;;;7.00;99.90;;;;;;4964906;29;20035;-78
2022/01/18 03:44:47;;;;;;;20.70;3.10;;;7.00;99.90;;;;;;4966392;29;20042;-78
2022/01/18 03:47:14;;;;;;;11.43;4.05;;;7.00;99.90;;;;;;4966791;28;20027;-77
2022/01/18 03:49:40;;;;;;;28.25;2.40;;;6.90;99.90;;;;;;4966390;28;20039;-78
2022/01/18 03:52:05;;;;;;;19.00;2.55;;;7.00;99.90;;;;;;4965274;29;20039;-78
2022/01/18 03:54:31;;;;;;;7.07;1.98;;;7.00;99.90;;;;;;4965933;29;20023;-79
2022/01/18 03:56:56;;;;;;;8.98;2.08;;;7.10;99.90;;;;;;4965110;29;20055;-77
2022/01/18 03:59:22;;;;;;;14.23;3.00;;;7.10;99.90;;;;;;4966898;29;20027;-78
2022/01/18 04:01:48;;;;;;;14.93;2.25;;;7.10;99.90;;;;;;4966614;29;20106;-79
2022/01/18 04:04:19;;;;;;;10.93;1.20;;;7.10;99.90;;;;;;4965074;29;20098;-81
2022/01/18 04:06:44;;;;;;;10.85;2.05;;;7.10;99.90;;;;;;4966770;28;20024;-79
2022/01/18 04:09:10;;;;;;;15.95;1.77;;;7.10;99.90;;;;;;4966047;29;20031;-77
2022/01/18 04:11:35;;;;;;;16.83;2.05;;;7.10;99.90;;;;;;4964817;29;20035;-77
2022/01/18 04:14:01;;;;;;;5.03;2.33;;;7.10;99.90;;;;;;4965289;29;20400;-78
2022/01/18 04:16:27;;;;;;;19.95;3.35;;;7.00;99.90;;;;;;4966462;29;20027;-79
2022/01/18 04:29:12;;;;;;;19.63;2.78;;;7.00;99.90;;;;;;4966371;29;20086;-79
2022/01/18 04:31:38;;;;;;;11.43;2.47;;;7.00;99.90;;;;;;4964512;29;20031;-79
2022/01/18 04:34:03;;;;;;;16.73;3.13;;;7.00;99.90;;;;;;4965905;28;20086;-80
2022/01/18 04:36:29;;;;;;;12.90;2.55;;;7.00;99.90;;;;;;4967747;28;20046;-78
2022/01/18 04:38:56;;;;;;;14.85;2.67;;;7.00;99.90;;;;;;4970648;29;20037;-80
2022/01/18 04:41:27;;;;;;;9.05;2.25;;;7.00;99.90;;;;;;4970317;28;20129;-79
2022/01/18 04:49:11;;;;;;;3.33;1.63;;;7.00;99.90;;;;;;4970301;29;20055;-77
2022/01/18 04:51:38;;;;;;;18.25;2.55;;;6.90;99.90;;;;;;4969842;28;20027;-78
2022/01/18 04:54:07;;;;;;;11.15;1.98;;;6.90;99.90;;;;;;4970141;28;20095;-79
2022/01/18 04:59:10;;;;;;;16.90;2.75;;;6.90;99.90;;;;;;4971541;28;20504;-78
2022/01/18 05:01:38;;;;;;;14.68;2.60;;;6.90;99.90;;;;;;4968751;29;20063;-79
2022/01/18 05:04:04;;;;;;;6.68;2.25;;;6.90;99.90;;;;;;4968455;29;20027;-78
2022/01/18 05:06:30;;;;;;;19.67;2.45;;;6.90;99.90;;;;;;4969973;28;20031;-77
2022/01/18 05:08:57;;;;;;;16.23;2.25;;;6.90;99.90;;;;;;4969889;28;20078;-79
2022/01/18 05:11:25;;;;;;;8.05;2.22;;;6.90;99.90;;;;;;4968661;29;20031;-78
2022/01/18 05:21:30;;;;;;;7.03;2.08;;;7.10;99.90;;;;;;4969638;28;20031;-77
2022/01/18 05:23:57;;;;;;;7.15;2.75;;;7.00;99.90;;;;;;4969645;28;20030;-77
2022/01/18 05:26:25;;;;;;;6.57;1.70;;;7.00;99.90;;;;;;4968036;29;20023;-77
2022/01/18 05:28:51;;;;;;;10.80;2.38;;;7.00;99.90;;;;;;4967974;29;20511;-78
2022/01/18 05:31:20;;;;;;;20.50;2.55;;;7.00;99.90;;;;;;4967580;29;20026;-80
2022/01/18 05:33:47;;;;;;;9.45;1.90;;;7.00;99.90;;;;;;4968879;29;20063;-80
2022/01/18 05:36:13;;;;;;;8.52;2.40;;;7.00;99.90;;;;;;4969363;28;20158;-78
2022/01/18 05:38:40;;;;;;;9.77;1.73;;;7.00;99.90;;;;;;4967513;29;20031;-77
2022/01/18 05:41:08;;;;;;;24.90;2.28;;;7.00;99.90;;;;;;4969089;28;20027;-78
2022/01/18 05:43:34;;;;;;;11.93;2.55;;;7.00;99.90;;;;;;4969065;28;20031;-78
2022/01/18 05:46:00;;;;;;;11.32;2.75;;;7.00;99.90;;;;;;4969041;28;20546;-80
2022/01/18 05:48:27;;;;;;;13.02;1.77;;;7.00;99.90;;;;;;4968910;28;20024;-79
2022/01/18 05:50:59;;;;;;;11.13;1.77;;;7.00;99.90;;;;;;4967968;29;20027;-77
2022/01/18 05:53:25;;;;;;;10.77;2.70;;;7.10;99.90;;;;;;4968970;28;20059;-77
2022/01/18 05:55:51;;;;;;;19.70;2.80;;;7.10;99.90;;;;;;4969054;28;20059;-77
2022/01/18 05:58:16;;;;;;;12.93;2.05;;;7.10;99.90;;;;;;4968764;29;20028;-79
2022/01/18 06:00:42;;;;;;;5.70;1.55;;;7.10;99.90;;;;;;4966921;29;20023;-77
2022/01/18 06:03:16;;;;;;;3.40;1.95;;;7.10;99.90;;;;;;4967381;29;20074;-78
2022/01/18 06:08:26;;;;;;;12.80;2.05;;;7.10;99.90;;;;;;4968680;29;20066;-76
2022/01/18 06:10:52;;;;;;;10.10;2.45;;;7.10;99.90;;;;;;4967720;29;20082;-78
2022/01/18 06:13:18;;;;;;;17.45;2.17;;;7.10;99.90;;;;;;4967050;29;20047;-77
2022/01/18 06:15:44;;;;;;;5.03;1.90;;;7.10;99.90;;;;;;4968319;29;20070;-77
2022/01/18 06:18:10;;;;;;;4.63;1.77;;;7.10;99.90;;;;;;4967154;29;20031;-77
2022/01/18 06:20:36;;;;;;;7.88;1.75;;;7.10;99.90;;;;;;4968243;28;20031;-77
2022/01/18 06:23:02;;;;;;;23.55;3.13;;;7.10;99.90;;;;;;4968439;29;20054;-76
2022/01/18 06:25:28;;;;;;;12.35;2.30;;;7.10;99.90;;;;;;4965968;29;20034;-77
2022/01/18 06:27:53;;;;;;;19.83;2.83;;;7.10;99.90;;;;;;4967921;28;20043;-76
2022/01/18 06:30:20;;;;;;;19.45;2.97;;;7.10;99.90;;;;;;4968112;29;20031;-77
2022/01/18 06:32:46;;;;;;;24.40;4.03;;;7.10;99.90;;;;;;4966543;29;20074;-77
2022/01/18 06:35:13;;;;;;;17.52;3.30;;;7.10;99.90;;;;;;4966404;29;20027;-77
2022/01/18 06:37:39;;;;;;;21.50;3.28;;;7.10;99.90;;;;;;4968111;28;20023;-77
2022/01/18 06:40:06;;;;;;;16.48;2.97;;;7.10;99.90;;;;;;4966782;29;20031;-77
2022/01/18 06:42:32;;;;;;;10.93;2.78;;;7.10;99.90;;;;;;4967730;28;20035;-76
2022/01/18 06:44:58;;;;;;;10.27;2.33;;;7.10;99.90;;;;;;4966847;29;20038;-77
2022/01/18 06:47:24;;;;;;;11.98;3.22;;;7.10;99.90;;;;;;4966984;29;20609;-76
2022/01/18 06:49:49;;;;;;;8.50;2.80;;;7.10;99.90;;;;;;4966366;29;20053;-78
2022/01/18 06:52:15;;;;;;;10.27;2.67;;;7.10;99.90;;;;;;4967934;29;20039;-77
2022/01/18 06:54:41;;;;;;;24.98;2.92;;;7.00;99.90;;;;;;4967697;28;20117;-78
2022/01/18 06:57:07;;;;;;;14.77;2.47;;;7.00;99.90;;;;;;4967495;29;20031;-77
2022/01/18 06:59:34;;;;;;;21.45;3.80;;;7.10;99.90;;;;;;4967318;28;20031;-77
2022/01/18 07:02:00;;;;;;;17.25;3.13;;;7.10;99.90;;;;;;4966736;29;20054;-76
2022/01/18 07:04:27;;;;;;;18.42;2.67;;;7.10;99.90;;;;;;4967588;28;20036;-77
2022/01/18 07:06:53;;;;;;;17.35;2.85;;;7.10;99.90;;;;;;4967197;29;20024;-78
2022/01/18 07:09:23;;;;;;;5.40;2.35;;;7.10;99.90;;;;;;4966508;29;20107;-77
2022/01/18 07:11:53;;;;;;;12.52;3.80;;;7.00;99.90;;;;;;4965647;29;20083;-77
2022/01/18 07:14:19;;;;;;;14.30;2.58;;;7.00;99.90;;;;;;4967434;28;20027;-76
2022/01/18 07:16:44;;;;;;;11.05;2.50;;;7.10;99.90;;;;;;4967116;29;20086;-78
2022/01/18 07:19:10;;;;;;;22.50;3.47;;;7.10;99.90;;;;;;4966361;29;20039;-75
2022/01/18 07:21:35;;;;;;;18.88;3.65;;;7.10;99.90;;;;;;4964219;29;20027;-77
2022/01/18 07:24:14;;;;;;;20.25;2.47;;;7.00;99.90;;;;;;4965446;29;20035;-76
2022/01/18 07:26:39;;;;;;;11.05;2.50;;;7.00;99.90;;;;;;4966299;28;20030;-74
2022/01/18 07:29:05;;;;;;;17.33;2.55;;;7.00;99.90;;;;;;4965712;29;20027;-76
2022/01/18 07:31:31;;;;;;;8.73;2.97;;;7.00;99.90;;;;;;4966824;29;20023;-76
2022/01/18 07:33:56;;;;;;;5.07;1.65;;;7.00;99.90;;;;;;4966636;29;20055;-76
2022/01/18 07:36:22;;;;;;;14.30;3.90;;;7.00;99.90;;;;;;4965112;29;20090;-76
2022/01/18 07:38:47;;;;;;;12.40;4.07;;;6.90;99.90;;;;;;4966710;29;20086;-76
2022/01/18 07:41:13;;;;;;;17.38;2.63;;;6.90;99.90;;;;;;4962547;29;20028;-76
2022/01/18 07:43:40;;;;;;;4.28;1.23;;;6.90;99.90;;;;;;4947565;29;20055;-77
2022/01/18 07:46:06;;;;;;;15.52;1.30;;;6.90;99.90;;;;;;4965863;29;20027;-76
2022/01/18 07:48:32;;;;;;;10.07;2.88;;;6.90;99.90;;;;;;4965492;29;20031;-77
2022/01/18 07:50:58;;;;;;;8.63;2.28;;;6.80;99.90;;;;;;4965037;28;20038;-77
2022/01/18 07:53:25;;;;;;;27.55;1.77;;;6.90;99.90;;;;;;4965535;28;20111;-76
2022/01/18 07:55:51;;;;;;;7.35;3.25;;;6.90;99.90;;;;;;4959120;28;20039;-75
2022/01/18 07:58:17;;;;;;;18.17;2.75;;;6.90;99.90;;;;;;4964559;29;20543;-76
2022/01/18 08:00:43;;;;;;;8.20;2.35;;;6.90;99.90;;;;;;4964084;28;20031;-76
2022/01/18 08:03:10;;;;;;;17.63;2.13;;;6.90;99.90;;;;;;4976575;28;20030;-76
2022/01/18 08:05:36;;;;;;;8.05;2.30;;;6.90;99.90;;;;;;4963896;29;20087;-77
2022/01/18 08:08:03;;;;;;;4.07;2.30;;;6.90;99.90;;;;;;4959530;28;20739;-76
2022/01/18 08:10:30;;;;;;;17.38;2.13;;;6.90;99.90;;;;;;4965788;28;20027;-77
2022/01/18 08:13:01;;;;;;;7.07;2.15;;;6.90;99.90;;;;;;4965812;28;20570;-76
2022/01/18 08:15:36;;;;;;;1.58;1.08;;;6.90;99.90;;;;;;4964903;28;20486;-77
2022/01/18 08:18:04;;;;;;;11.20;2.33;;;6.90;99.90;;;;;;4962873;28;20054;-76
2022/01/18 08:20:30;;;;;;;7.97;2.50;;;6.90;99.90;;;;;;4960909;29;20039;-75
2022/01/18 08:22:56;;;;;;;4.47;1.17;;;6.90;99.90;;;;;;4944362;29;20028;-77
2022/01/18 08:25:23;;;;;;;15.98;2.17;;;7.00;99.90;;;;;;4945793;29;20031;-75
2022/01/18 08:27:49;;;;;;;3.80;1.77;;;7.00;99.90;;;;;;4962235;29;20027;-76
2022/01/18 08:30:19;;;;;;;7.78;1.60;;;7.00;99.90;;;;;;4960726;28;20050;-75
2022/01/18 08:32:47;;;;;;;13.10;2.42;;;7.00;99.90;;;;;;4974657;28;20055;-75
2022/01/18 08:35:13;;;;;;;7.70;1.45;;;7.00;99.90;;;;;;4958636;28;20030;-75
2022/01/18 08:37:40;;;;;;;7.18;2.28;;;7.00;99.90;;;;;;4959662;29;20028;-76
2022/01/18 08:40:56;;;;;;;12.63;1.17;;;7.00;99.90;;;;;;4947894;29;20028;-76
2022/01/18 08:44:13;;;;;;;13.55;1.73;;;7.00;99.90;;;;;;4963379;29;20060;-77
2022/01/18 08:47:30;;;;;;;10.05;1.70;;;7.00;99.90;;;;;;4963911;29;20122;-76
2022/01/18 08:50:47;;;;;;;10.13;1.30;;;7.00;99.90;;;;;;4954533;28;20038;-77
2022/01/18 08:54:04;;;;;;;18.52;1.90;;;7.10;99.90;;;;;;4945660;29;20134;-76
2022/01/18 08:57:21;;;;;;;9.57;2.03;;;7.10;99.90;;;;;;4942450;29;20043;-78
2022/01/18 09:00:38;;;;;;;6.60;1.60;;;7.10;99.90;;;;;;4960131;29;20095;-75
2022/01/18 09:03:55;;;;;;;6.80;2.10;;;7.10;99.90;;;;;;4962776;29;20039;-76
2022/01/18 09:13:37;;;;;;;3.17;1.17;;;7.20;99.90;;;;;;5291914;23;20053;-78
2022/01/18 09:16:06;;;;;;;10.23;2.05;;;7.20;99.90;;;;;;5015976;28;20037;-77
2022/01/18 09:18:32;;;;;;;6.00;1.70;;;7.30;99.90;;;;;;5019249;28;20045;-76
2022/01/18 09:20:58;;;;;;;6.55;2.38;;;7.30;99.90;;;;;;5022977;28;20022;-78
2022/01/18 09:23:25;;;;;;;17.15;2.28;;;7.30;99.90;;;;;;5022428;28;20416;-78
2022/01/18 09:25:54;;;;;;;7.68;2.10;;;7.30;99.90;;;;;;5025368;28;20049;-78
2022/01/18 09:28:20;;;;;;;6.60;1.77;;;7.40;99.90;;;;;;5025250;28;20033;-77
2022/01/18 09:30:45;;;;;;;7.50;2.15;;;7.30;99.90;;;;;;5021824;28;20030;-78
2022/01/18 09:33:11;;;;;;;19.75;2.33;;;7.30;99.90;;;;;;5008841;28;20154;-78
2022/01/18 09:35:38;;;;;;;2.80;1.35;;;7.30;99.90;;;;;;5038637;28;20030;-78
2022/01/18 09:38:04;;;;;;;10.57;1.38;;;7.30;99.90;;;;;;5026676;28;20049;-78
2022/01/18 09:40:33;;;;;;;18.25;2.78;;;7.30;99.90;;;;;;5021789;28;20033;-76
2022/01/18 09:43:01;;;;;;;5.63;1.40;;;7.30;99.90;;;;;;5029422;28;20026;-79
2022/01/18 09:45:28;;;;;;;16.00;1.80;;;7.40;99.90;;;;;;5042284;28;20594;-78
2022/01/18 09:47:59;;;;;;;18.23;2.47;;;7.40;99.90;;;;;;5027646;28;20037;-79
2022/01/18 09:50:31;;;;;;;12.82;2.22;;;7.50;99.90;;;;;;5041047;28;20049;-78
2022/01/18 09:52:59;;;;;;;14.15;1.83;;;7.50;99.90;;;;;;5035148;28;20042;-77
2022/01/18 09:55:29;;;;;;;7.22;2.17;;;7.50;99.90;;;;;;5023696;28;20044;-76
2022/01/18 09:57:58;;;;;;;18.05;3.22;;;7.60;99.90;;;;;;5021373;28;20032;-77
2022/01/18 10:00:28;;;;;;;5.55;1.25;;;7.60;99.90;;;;;;5021858;28;20089;-79
2022/01/18 10:02:54;;;;;;;24.63;2.80;;;7.60;99.90;;;;;;5021127;28;20030;-77
2022/01/18 10:05:38;;;;;;;10.27;2.50;;;7.60;99.90;;;;;;5032971;28;20037;-78
2022/01/18 10:08:12;;;;;;;18.38;2.17;;;7.70;99.90;;;;;;5017835;28;20021;-79
2022/01/18 10:10:44;;;;;;;10.27;1.67;;;7.70;99.90;;;;;;5021574;28;20030;-78
2022/01/18 10:13:39;;;;;;;5.70;1.23;;;7.80;99.90;;;;;;5015120;28;20493;-79
2022/01/18 10:16:23;;;;;;;9.77;1.83;;;7.80;99.90;;;;;;4988643;28;20053;-78
2022/01/18 10:19:03;;;;;;;7.03;1.50;;;7.90;99.90;;;;;;4991448;28;20038;-77
2022/01/18 10:21:39;;;;;;;3.35;1.15;;;7.90;99.90;;;;;;4995215;28;20035;-78
2022/01/18 10:24:30;;;;;;;9.23;1.55;;;8.00;99.90;;;;;;5003318;28;20058;-76
2022/01/18 10:26:58;;;;;;;16.20;1.92;;;8.00;99.90;;;;;;5003294;28;20035;-77
2022/01/18 10:29:39;;;;;;;8.85;1.83;;;8.00;99.90;;;;;;4999508;28;20014;-77
2022/01/18 10:35:04;;;;;;;9.38;1.50;;;8.10;99.90;;;;;;4995128;28;20136;-77
2022/01/18 10:37:31;;;;;;;3.95;1.48;;;8.10;99.90;;;;;;4977130;28;20027;-78
2022/01/18 10:40:08;;;;;;;2.35;0.93;;;8.20;99.90;;;;;;4970752;28;20038;-78
2022/01/18 10:42:48;;;;;;;3.60;1.27;;;8.20;99.90;;;;;;4992351;28;20038;-77
2022/01/18 10:45:33;;;;;;;1.10;0.65;;;8.20;99.90;;;;;;4987196;28;20626;-75
2022/01/18 10:48:10;;;;;;;1.88;1.05;;;8.10;99.90;;;;;;4984908;28;20042;-77
2022/01/18 10:50:38;;;;;;;4.45;1.13;;;8.00;99.90;;;;;;5001533;28;20039;-77
2022/01/18 10:53:15;;;;;;;9.85;1.52;;;8.00;99.90;;;;;;4997898;28;20093;-77
2022/01/18 10:55:42;;;;;;;8.48;2.08;;;8.00;99.90;;;;;;4979571;28;20070;-74
2022/01/18 10:58:12;;;;;;;2.83;1.27;;;7.90;99.90;;;;;;4984618;28;20026;-76
2022/01/18 11:00:38;;;;;;;3.03;1.42;;;7.90;99.90;;;;;;4985225;28;20066;-75
2022/01/18 11:03:04;;;;;;;10.65;1.48;;;7.90;99.90;;;;;;4984190;28;20034;-77
2022/01/18 11:05:36;;;;;;;3.17;0.90;;;8.00;99.90;;;;;;4982350;28;20037;-76
2022/01/18 11:08:06;;;;;;;3.67;0.75;;;7.90;99.90;;;;;;4988070;28;20030;-78
2022/01/18 11:10:36;;;;;;;3.80;1.05;;;7.80;99.90;;;;;;4983922;28;20041;-78
2022/01/18 11:13:17;;;;;;;2.75;0.90;;;7.80;99.90;;;;;;4985533;28;20038;-80
2022/01/18 11:15:50;;;;;;;1.27;0.88;;;7.90;99.90;;;;;;5015599;28;20109;-77
2022/01/18 11:18:25;;;;;;;0.45;0.45;;;7.90;99.90;;;;;;5023819;28;20033;-76
2022/01/18 11:20:53;;;;;;;1.70;0.63;;;8.00;99.90;;;;;;5023201;28;20097;-76
2022/01/18 11:23:22;;;;;;;3.40;1.42;;;7.90;99.90;;;;;;5023957;28;20057;-77
2022/01/18 11:25:49;;;;;;;2.90;1.65;;;8.00;99.90;;;;;;5021067;28;20030;-77
2022/01/18 11:28:15;;;;;;;7.50;1.30;;;8.00;99.90;;;;;;5023338;28;20033;-76
2022/01/18 11:30:44;;;;;;;2.47;1.10;;;8.00;99.90;;;;;;5006695;28;20061;-76
2022/01/18 11:33:20;;;;;;;2.97;1.33;;;8.00;99.90;;;;;;5023250;28;20034;-76
2022/01/18 11:35:58;;;;;;;3.60;1.65;;;8.00;99.90;;;;;;5022340;28;20053;-77
2022/01/18 11:38:53;;;;;;;1.75;1.15;;;8.10;99.90;;;;;;5021216;28;20477;-76
2022/01/18 11:41:26;;;;;;;12.75;1.73;;;8.10;99.90;;;;;;5022464;28;20048;-79
2022/01/18 11:43:52;;;;;;;2.15;1.08;;;8.10;99.90;;;;;;5022635;28;20081;-78
2022/01/18 11:46:34;;;;;;;5.00;1.40;;;8.10;99.90;;;;;;5018638;28;20030;-80
2022/01/18 11:49:13;;;;;;;9.10;1.50;;;8.10;99.90;;;;;;5010907;28;20539;-80
2022/01/18 11:51:55;;;;;;;5.05;1.75;;;8.10;99.90;;;;;;5023841;28;20486;-77
2022/01/18 11:54:21;;;;;;;4.72;1.65;;;8.00;99.90;;;;;;5024181;28;20127;-76
2022/01/18 11:56:47;;;;;;;8.20;2.20;;;7.90;99.90;;;;;;5022865;28;20034;-75
2022/01/18 11:59:21;;;;;;;7.82;1.98;;;7.80;99.90;;;;;;5021969;28;20026;-79
2022/01/18 12:01:51;;;;;;;5.30;1.92;;;7.80;99.90;;;;;;5023545;28;20025;-76
2022/01/18 12:07:36;;;;;;;4.88;2.00;;;7.70;99.90;;;;;;5020167;28;20037;-78
2022/01/18 12:10:34;;;;;;;4.25;2.00;;;7.70;99.90;;;;;;4983611;28;20101;-79
2022/01/18 12:13:06;;;;;;;7.07;2.45;;;7.70;99.90;;;;;;5003977;28;20104;-77
2022/01/18 12:15:38;;;;;;;8.80;2.25;;;7.70;99.90;;;;;;5017217;28;20133;-77
2022/01/18 12:18:25;;;;;;;4.30;2.08;;;7.60;99.90;;;;;;5001295;28;20060;-76
2022/01/18 12:21:16;;;;;;;5.47;1.42;;;7.70;99.90;;;;;;5018973;28;20843;-74
2022/01/18 12:23:43;;;;;;;3.60;1.45;;;7.60;99.90;;;;;;5007724;28;20049;-77
2022/01/18 12:26:27;;;;;;;8.00;2.08;;;7.50;99.90;;;;;;5012234;28;20041;-79
2022/01/18 12:32:04;;;;;;;2.67;0.93;;;7.50;99.90;;;;;;5013881;28;20040;-77
2022/01/18 12:34:45;;;;;;;5.05;1.45;;;7.50;99.90;;;;;;5012323;28;20065;-80
2022/01/18 12:39:57;;;;;;;8.10;1.55;;;7.50;99.90;;;;;;5012033;28;20038;-76
2022/01/18 12:44:59;;;;;;;4.38;0.95;;;7.50;99.90;;;;;;5003600;28;20038;-79
2022/01/18 12:47:25;;;;;;;2.75;1.27;;;7.50;99.90;;;;;;5003555;28;20054;-80
2022/01/18 12:49:52;;;;;;;3.83;1.42;;;7.50;99.90;;;;;;5004546;28;20031;-78
2022/01/18 12:52:18;;;;;;;6.25;1.60;;;7.50;99.90;;;;;;5022563;28;20481;-76
2022/01/18 12:54:44;;;;;;;10.30;2.45;;;7.40;99.90;;;;;;5021487;28;20033;-78
2022/01/18 12:57:18;;;;;;;5.22;2.08;;;7.50;99.90;;;;;;5002770;28;20030;-78
2022/01/18 13:00:14;;;;;;;4.22;1.35;;;7.40;99.90;;;;;;5015663;28;20065;-80
2022/01/18 13:02:47;;;;;;;5.72;1.98;;;7.40;99.90;;;;;;5007892;28;20035;-79
2022/01/18 13:05:12;;;;;;;10.70;2.30;;;7.40;99.90;;;;;;5022745;28;20033;-78
2022/01/18 13:07:53;;;;;;;15.25;2.17;;;7.40;99.90;;;;;;5021674;28;20090;-79
2022/01/18 13:10:37;;;;;;;10.40;2.20;;;7.50;99.90;;;;;;5007738;28;20057;-76
2022/01/18 13:13:06;;;;;;;4.50;2.13;;;7.50;99.90;;;;;;5007142;28;20034;-79
2022/01/18 13:26:44;;;;;;;7.60;2.42;;;7.40;99.90;;;;;;5024837;28;20057;-78
2022/01/18 13:29:16;;;;;;;7.35;2.60;;;7.40;99.90;;;;;;5022758;28;20037;-76
2022/01/18 13:31:45;;;;;;;4.82;2.63;;;7.40;99.90;;;;;;5008823;28;20106;-79
2022/01/18 13:34:13;;;;;;;9.57;3.88;;;7.40;99.90;;;;;;5024302;28;20124;-77
2022/01/18 13:36:51;;;;;;;9.00;3.05;;;7.40;99.90;;;;;;5024566;28;20370;-80
2022/01/18 13:39:22;;;;;;;6.20;2.65;;;7.40;99.90;;;;;;5026714;28;20361;-77
2022/01/18 13:41:47;;;;;;;5.00;2.33;;;7.40;99.90;;;;;;5025166;28;20030;-78
2022/01/18 13:44:13;;;;;;;7.57;2.88;;;7.40;99.90;;;;;;5022814;28;20026;-81
2022/01/18 13:46:39;;;;;;;4.75;2.45;;;7.50;99.90;;;;;;5006727;28;20025;-82
2022/01/18 13:49:07;;;;;;;3.33;1.73;;;7.40;99.90;;;;;;5005343;28;20108;-81
2022/01/18 13:51:34;;;;;;;6.85;2.05;;;7.50;99.90;;;;;;5017732;28;20021;-75
2022/01/18 13:54:05;;;;;;;6.30;2.30;;;7.50;99.90;;;;;;5024895;28;20088;-79
2022/01/18 13:56:46;;;;;;;7.72;2.33;;;7.40;99.90;;;;;;5025645;28;20482;-77
2022/01/18 13:59:12;;;;;;;8.75;2.25;;;7.40;99.90;;;;;;5025082;28;20037;-86
2022/01/18 14:01:41;;;;;;;9.93;2.75;;;7.40;99.90;;;;;;5024387;28;20394;-80
2022/01/18 14:04:18;;;;;;;8.18;1.83;;;7.30;99.90;;;;;;5024139;28;20049;-82
2022/01/18 14:06:45;;;;;;;3.60;2.00;;;7.30;99.90;;;;;;5024729;28;20030;-78
2022/01/18 14:09:13;;;;;;;4.32;2.13;;;7.30;99.90;;;;;;5021450;28;20041;-83
2022/01/18 14:11:47;;;;;;;4.20;2.28;;;7.30;99.90;;;;;;5024331;28;20037;-81
2022/01/18 14:14:22;;;;;;;;;;;7.30;99.90;;;;;;5010682;28;20057;-83
2022/01/18 14:16:54;;;;;;;4.47;2.60;;;7.30;99.90;;;;;;4999963;28;19910;-80
2022/01/18 14:19:38;;;;;;;5.70;2.30;;;7.30;99.90;;;;;;5025615;28;20069;-81
2022/01/18 14:22:23;;;;;;;4.07;2.25;;;7.30;99.90;;;;;;5025761;28;20085;-79
2022/01/18 14:24:51;;;;;;;5.30;2.35;;;7.30;99.90;;;;;;5008023;28;20031;-87
2022/01/18 14:27:39;;;;;;;5.10;3.05;;;7.20;99.90;;;;;;5020221;28;20061;-81
2022/01/18 14:30:20;;;;;;;8.25;2.55;;;7.30;99.90;;;;;;5024459;28;20026;-83
2022/01/18 14:32:50;;;;;;;13.20;3.72;;;7.20;99.90;;;;;;5007577;28;20216;-76
2022/01/18 14:35:21;;;;;;;3.92;2.30;;;7.20;99.90;;;;;;5007819;28;20030;-79
2022/01/18 14:37:54;;;;;;;7.97;2.78;;;7.10;99.90;;;;;;5024792;28;21179;-80
2022/01/18 14:40:31;;;;;;;6.35;2.20;;;7.10;99.90;;;;;;5008230;28;20525;-78
2022/01/18 14:43:09;;;;;;;7.85;2.00;;;7.10;99.90;;;;;;5024695;28;20061;-85
2022/01/18 14:45:41;;;;;;;10.63;3.35;;;7.10;99.90;;;;;;5007791;28;20042;-82
2022/01/18 14:48:10;;;;;;;5.75;2.97;;;7.10;99.90;;;;;;5019944;28;20030;-81
2022/01/18 14:50:38;;;;;;;10.02;2.70;;;7.20;99.90;;;;;;5019992;28;20026;-82